sensor_id;sensor_type;location;lat;lon;timestamp;temperature;humidity
26230;DHT22;13960;50.860;4.352;2022-07-29T00:00:29;21.10;99.90
26230;DHT22;13960;50.860;4.352;2022-07-29T00:02:55;20.90;99.90
26230;DHT22;13960;50.860;4.352;2022-07-29T00:05:20;20.90;99.90
26230;DHT22;13960;50.860;4.352;2022-07-29T00:07:46;20.80;99.90
26230;DHT22;13960;50.860;4.352;2022-07-29T00:10:11;20.90;99.90
26230;DHT22;13960;50.860;4.352;2022-07-29T00:12:37;20.70;99.90
26230;DHT22;13960;50.860;4.352;2022-07-29T00:15:03;20.80;99.90
26230;DHT22;13960;50.860;4.352;2022-07-29T00:17:28;21.00;99.90
26230;DHT22;13960;50.860;4.352;2022-07-29T00:19:54;21.00;99.90
26230;DHT22;13960;50.860;4.352;2022-07-29T00:22:19;20.90;99.90
26230;DHT22;13960;50.860;4.352;2022-07-29T00:24:46;20.80;99.90
26230;DHT22;13960;50.860;4.352;2022-07-29T00:27:12;20.80;99.90
26230;DHT22;13960;50.860;4.352;2022-07-29T00:29:40;20.90;99.90
26230;DHT22;13960;50.860;4.352;2022-07-29T00:32:06;20.90;99.90
26230;DHT22;13960;50.860;4.352;2022-07-29T00:34:31;20.90;99.90
26230;DHT22;13960;50.860;4.352;2022-07-29T00:37:16;20.90;99.90
26230;DHT22;13960;50.860;4.352;2022-07-29T00:39:41;20.80;99.90
26230;DHT22;13960;50.860;4.352;2022-07-29T00:42:07;20.90;99.90
26230;DHT22;13960;50.860;4.352;2022-07-29T00:44:36;20.80;99.90
26230;DHT22;13960;50.860;4.352;2022-07-29T00:47:02;20.60;99.90
26230;DHT22;13960;50.860;4.352;2022-07-29T00:49:27;20.60;99.90
26230;DHT22;13960;50.860;4.352;2022-07-29T00:51:54;20.50;99.90
26230;DHT22;13960;50.860;4.352;2022-07-29T00:54:21;20.60;99.90
26230;DHT22;13960;50.860;4.352;2022-07-29T00:56:46;20.50;99.90
26230;DHT22;13960;50.860;4.352;2022-07-29T00:59:13;20.60;99.90
26230;DHT22;13960;50.860;4.352;2022-07-29T01:01:38;20.60;99.90
26230;DHT22;13960;50.860;4.352;2022-07-29T01:04:05;20.80;99.90
26230;DHT22;13960;50.860;4.352;2022-07-29T01:06:31;21.00;99.90
26230;DHT22;13960;50.860;4.352;2022-07-29T01:08:56;20.90;99.90
26230;DHT22;13960;50.860;4.352;2022-07-29T01:11:23;20.60;99.90
26230;DHT22;13960;50.860;4.352;2022-07-29T01:13:48;20.50;99.90
26230;DHT22;13960;50.860;4.352;2022-07-29T01:19:07;20.50;99.90
26230;DHT22;13960;50.860;4.352;2022-07-29T01:21:51;20.50;99.90
26230;DHT22;13960;50.860;4.352;2022-07-29T01:29:48;20.10;99.90
26230;DHT22;13960;50.860;4.352;2022-07-29T01:32:15;19.90;99.90
26230;DHT22;13960;50.860;4.352;2022-07-29T01:40:22;20.20;99.90
26230;DHT22;13960;50.860;4.352;2022-07-29T01:42:50;20.50;99.90
26230;DHT22;13960;50.860;4.352;2022-07-29T01:45:18;20.50;99.90
26230;DHT22;13960;50.860;4.352;2022-07-29T01:47:58;20.30;99.90
26230;DHT22;13960;50.860;4.352;2022-07-29T01:50:27;20.30;99.90
26230;DHT22;13960;50.860;4.352;2022-07-29T01:53:02;19.90;99.90
26230;DHT22;13960;50.860;4.352;2022-07-29T01:55:31;19.70;99.90
26230;DHT22;13960;50.860;4.352;2022-07-29T01:57:57;19.70;99.90
26230;DHT22;13960;50.860;4.352;2022-07-29T02:00:24;19.90;99.90
26230;DHT22;13960;50.860;4.352;2022-07-29T02:02:50;19.90;99.90
26230;DHT22;13960;50.860;4.352;2022-07-29T02:05:17;19.80;99.90
26230;DHT22;13960;50.860;4.352;2022-07-29T02:07:43;19.90;99.90
26230;DHT22;13960;50.860;4.352;2022-07-29T02:10:10;19.90;99.90
26230;DHT22;13960;50.860;4.352;2022-07-29T02:12:36;19.70;99.90
26230;DHT22;13960;50.860;4.352;2022-07-29T02:15:03;19.40;99.90
26230;DHT22;13960;50.860;4.352;2022-07-29T02:17:33;19.40;99.90
26230;DHT22;13960;50.860;4.352;2022-07-29T02:20:01;19.60;99.90
26230;DHT22;13960;50.860;4.352;2022-07-29T02:22:28;19.70;99.90
26230;DHT22;13960;50.860;4.352;2022-07-29T02:24:54;19.90;99.90
26230;DHT22;13960;50.860;4.352;2022-07-29T02:27:20;20.00;99.90
26230;DHT22;13960;50.860;4.352;2022-07-29T02:29:47;20.10;99.90
26230;DHT22;13960;50.860;4.352;2022-07-29T02:32:14;19.70;99.90
26230;DHT22;13960;50.860;4.352;2022-07-29T02:34:41;19.70;99.90
26230;DHT22;13960;50.860;4.352;2022-07-29T02:37:08;19.80;99.90
26230;DHT22;13960;50.860;4.352;2022-07-29T02:39:34;20.00;99.90
26230;DHT22;13960;50.860;4.352;2022-07-29T02:42:03;19.70;99.90
26230;DHT22;13960;50.860;4.352;2022-07-29T02:44:30;19.40;99.90
26230;DHT22;13960;50.860;4.352;2022-07-29T02:47:10;19.60;99.90
26230;DHT22;13960;50.860;4.352;2022-07-29T02:49:38;19.50;99.90
26230;DHT22;13960;50.860;4.352;2022-07-29T02:54:39;19.40;99.90
26230;DHT22;13960;50.860;4.352;2022-07-29T02:57:09;19.40;99.90
26230;DHT22;13960;50.860;4.352;2022-07-29T02:59:36;19.30;99.90
26230;DHT22;13960;50.860;4.352;2022-07-29T03:02:02;19.20;99.90
26230;DHT22;13960;50.860;4.352;2022-07-29T03:04:27;18.90;99.90
26230;DHT22;13960;50.860;4.352;2022-07-29T03:06:54;18.80;99.90
26230;DHT22;13960;50.860;4.352;2022-07-29T03:09:20;18.90;99.90
26230;DHT22;13960;50.860;4.352;2022-07-29T03:11:47;19.20;99.90
26230;DHT22;13960;50.860;4.352;2022-07-29T03:14:12;19.30;99.90
26230;DHT22;13960;50.860;4.352;2022-07-29T03:16:38;19.40;99.90
26230;DHT22;13960;50.860;4.352;2022-07-29T03:19:04;19.50;99.90
26230;DHT22;13960;50.860;4.352;2022-07-29T03:21:30;19.30;99.90
26230;DHT22;13960;50.860;4.352;2022-07-29T03:23:56;19.30;99.90
26230;DHT22;13960;50.860;4.352;2022-07-29T03:26:21;19.10;99.90
26230;DHT22;13960;50.860;4.352;2022-07-29T03:28:47;19.10;99.90
26230;DHT22;13960;50.860;4.352;2022-07-29T03:31:12;19.20;99.90
26230;DHT22;13960;50.860;4.352;2022-07-29T03:33:38;19.30;99.90
26230;DHT22;13960;50.860;4.352;2022-07-29T03:36:03;19.20;99.90
26230;DHT22;13960;50.860;4.352;2022-07-29T03:38:30;19.10;99.90
26230;DHT22;13960;50.860;4.352;2022-07-29T03:40:59;19.10;99.90
26230;DHT22;13960;50.860;4.352;2022-07-29T03:43:27;19.20;99.90
26230;DHT22;13960;50.860;4.352;2022-07-29T03:45:55;19.40;99.90
26230;DHT22;13960;50.860;4.352;2022-07-29T03:48:22;19.50;99.90
26230;DHT22;13960;50.860;4.352;2022-07-29T03:50:49;19.60;99.90
26230;DHT22;13960;50.860;4.352;2022-07-29T03:53:16;19.60;99.90
26230;DHT22;13960;50.860;4.352;2022-07-29T03:55:44;19.50;99.90
26230;DHT22;13960;50.860;4.352;2022-07-29T03:58:12;19.60;99.90
26230;DHT22;13960;50.860;4.352;2022-07-29T04:00:38;19.60;99.90
26230;DHT22;13960;50.860;4.352;2022-07-29T04:03:04;19.60;99.90
26230;DHT22;13960;50.860;4.352;2022-07-29T04:05:31;19.60;99.90
26230;DHT22;13960;50.860;4.352;2022-07-29T04:07:56;19.60;99.90
26230;DHT22;13960;50.860;4.352;2022-07-29T04:10:22;19.40;99.90
26230;DHT22;13960;50.860;4.352;2022-07-29T04:12:50;19.20;99.90
26230;DHT22;13960;50.860;4.352;2022-07-29T04:15:16;19.00;99.90
26230;DHT22;13960;50.860;4.352;2022-07-29T04:17:42;18.90;99.90
26230;DHT22;13960;50.860;4.352;2022-07-29T04:20:08;19.10;99.90
26230;DHT22;13960;50.860;4.352;2022-07-29T04:22:33;19.00;99.90
26230;DHT22;13960;50.860;4.352;2022-07-29T04:24:59;18.80;99.90
26230;DHT22;13960;50.860;4.352;2022-07-29T04:27:24;18.90;99.90
26230;DHT22;13960;50.860;4.352;2022-07-29T04:29:50;19.00;99.90
26230;DHT22;13960;50.860;4.352;2022-07-29T04:32:15;19.20;99.90
26230;DHT22;13960;50.860;4.352;2022-07-29T04:34:41;19.20;99.90
26230;DHT22;13960;50.860;4.352;2022-07-29T04:37:06;19.20;99.90
26230;DHT22;13960;50.860;4.352;2022-07-29T04:39:32;19.20;99.90
26230;DHT22;13960;50.860;4.352;2022-07-29T04:41:57;18.90;99.90
26230;DHT22;13960;50.860;4.352;2022-07-29T04:44:23;18.80;99.90
26230;DHT22;13960;50.860;4.352;2022-07-29T04:46:48;18.80;99.90
26230;DHT22;13960;50.860;4.352;2022-07-29T04:49:14;19.00;99.90
26230;DHT22;13960;50.860;4.352;2022-07-29T04:51:39;19.30;99.90
26230;DHT22;13960;50.860;4.352;2022-07-29T04:54:05;19.50;99.90
26230;DHT22;13960;50.860;4.352;2022-07-29T04:56:31;19.60;99.90
26230;DHT22;13960;50.860;4.352;2022-07-29T04:58:58;19.60;99.90
26230;DHT22;13960;50.860;4.352;2022-07-29T05:01:23;19.40;99.90
26230;DHT22;13960;50.860;4.352;2022-07-29T05:03:49;19.40;99.90
26230;DHT22;13960;50.860;4.352;2022-07-29T05:06:14;19.30;99.90
26230;DHT22;13960;50.860;4.352;2022-07-29T05:08:40;19.30;99.90
26230;DHT22;13960;50.860;4.352;2022-07-29T05:11:05;19.30;99.90
26230;DHT22;13960;50.860;4.352;2022-07-29T05:13:31;19.30;99.90
26230;DHT22;13960;50.860;4.352;2022-07-29T05:15:56;19.00;99.90
26230;DHT22;13960;50.860;4.352;2022-07-29T05:18:24;18.90;99.90
26230;DHT22;13960;50.860;4.352;2022-07-29T05:20:49;19.10;99.90
26230;DHT22;13960;50.860;4.352;2022-07-29T05:23:15;19.00;99.90
26230;DHT22;13960;50.860;4.352;2022-07-29T05:25:40;19.10;99.90
26230;DHT22;13960;50.860;4.352;2022-07-29T05:28:07;19.00;99.90
26230;DHT22;13960;50.860;4.352;2022-07-29T05:30:32;19.00;99.90
26230;DHT22;13960;50.860;4.352;2022-07-29T05:32:58;19.00;99.90
26230;DHT22;13960;50.860;4.352;2022-07-29T05:35:23;18.90;99.90
26230;DHT22;13960;50.860;4.352;2022-07-29T05:37:49;18.90;99.90
26230;DHT22;13960;50.860;4.352;2022-07-29T05:40:15;18.90;99.90
26230;DHT22;13960;50.860;4.352;2022-07-29T05:42:42;19.10;99.90
26230;DHT22;13960;50.860;4.352;2022-07-29T05:45:07;19.20;99.90
26230;DHT22;13960;50.860;4.352;2022-07-29T05:47:33;19.30;99.90
26230;DHT22;13960;50.860;4.352;2022-07-29T05:49:59;19.10;99.90
26230;DHT22;13960;50.860;4.352;2022-07-29T05:52:25;19.10;99.90
26230;DHT22;13960;50.860;4.352;2022-07-29T05:54:51;19.10;99.90
26230;DHT22;13960;50.860;4.352;2022-07-29T05:57:19;19.10;99.90
26230;DHT22;13960;50.860;4.352;2022-07-29T05:59:45;19.10;99.90
26230;DHT22;13960;50.860;4.352;2022-07-29T06:02:11;19.30;99.90
26230;DHT22;13960;50.860;4.352;2022-07-29T06:04:37;19.30;99.90
26230;DHT22;13960;50.860;4.352;2022-07-29T06:07:03;19.30;99.90
26230;DHT22;13960;50.860;4.352;2022-07-29T06:09:29;19.10;99.90
26230;DHT22;13960;50.860;4.352;2022-07-29T06:11:55;19.30;99.90
26230;DHT22;13960;50.860;4.352;2022-07-29T06:14:21;19.50;99.90
26230;DHT22;13960;50.860;4.352;2022-07-29T06:16:46;19.40;99.90
26230;DHT22;13960;50.860;4.352;2022-07-29T06:19:12;19.50;99.90
26230;DHT22;13960;50.860;4.352;2022-07-29T06:21:41;19.40;99.90
26230;DHT22;13960;50.860;4.352;2022-07-29T06:24:07;19.20;99.90
26230;DHT22;13960;50.860;4.352;2022-07-29T06:26:32;19.00;99.90
26230;DHT22;13960;50.860;4.352;2022-07-29T06:29:00;18.90;99.90
26230;DHT22;13960;50.860;4.352;2022-07-29T06:31:26;19.00;99.90
26230;DHT22;13960;50.860;4.352;2022-07-29T06:33:52;19.00;99.90
26230;DHT22;13960;50.860;4.352;2022-07-29T06:36:18;19.00;99.90
26230;DHT22;13960;50.860;4.352;2022-07-29T06:38:43;19.00;99.90
26230;DHT22;13960;50.860;4.352;2022-07-29T06:41:09;19.00;99.90
26230;DHT22;13960;50.860;4.352;2022-07-29T06:43:38;19.20;99.90
26230;DHT22;13960;50.860;4.352;2022-07-29T06:46:13;19.40;99.90
26230;DHT22;13960;50.860;4.352;2022-07-29T06:48:39;19.60;99.90
26230;DHT22;13960;50.860;4.352;2022-07-29T06:51:06;19.70;99.90
26230;DHT22;13960;50.860;4.352;2022-07-29T06:53:32;19.40;99.90
26230;DHT22;13960;50.860;4.352;2022-07-29T06:55:58;19.10;99.90
26230;DHT22;13960;50.860;4.352;2022-07-29T06:58:24;19.30;99.90
26230;DHT22;13960;50.860;4.352;2022-07-29T07:00:50;19.60;99.90
26230;DHT22;13960;50.860;4.352;2022-07-29T07:03:16;20.10;99.90
26230;DHT22;13960;50.860;4.352;2022-07-29T07:05:42;20.10;99.90
26230;DHT22;13960;50.860;4.352;2022-07-29T07:08:08;20.30;99.90
26230;DHT22;13960;50.860;4.352;2022-07-29T07:10:34;20.50;99.90
26230;DHT22;13960;50.860;4.352;2022-07-29T07:13:01;20.80;99.90
26230;DHT22;13960;50.860;4.352;2022-07-29T07:15:27;20.80;99.90
26230;DHT22;13960;50.860;4.352;2022-07-29T07:17:52;20.90;99.90
26230;DHT22;13960;50.860;4.352;2022-07-29T07:20:18;20.90;99.90
26230;DHT22;13960;50.860;4.352;2022-07-29T07:22:44;20.90;99.90
26230;DHT22;13960;50.860;4.352;2022-07-29T07:25:10;20.90;99.90
26230;DHT22;13960;50.860;4.352;2022-07-29T07:27:36;20.90;99.90
26230;DHT22;13960;50.860;4.352;2022-07-29T07:30:04;20.70;99.90
26230;DHT22;13960;50.860;4.352;2022-07-29T07:32:31;20.60;99.90
26230;DHT22;13960;50.860;4.352;2022-07-29T07:34:56;20.30;99.90
26230;DHT22;13960;50.860;4.352;2022-07-29T07:37:22;20.20;99.90
26230;DHT22;13960;50.860;4.352;2022-07-29T07:39:50;20.40;99.90
26230;DHT22;13960;50.860;4.352;2022-07-29T07:42:15;20.40;99.90
26230;DHT22;13960;50.860;4.352;2022-07-29T07:44:41;20.30;99.90
26230;DHT22;13960;50.860;4.352;2022-07-29T07:47:07;20.20;99.90
26230;DHT22;13960;50.860;4.352;2022-07-29T07:49:32;20.10;99.90
26230;DHT22;13960;50.860;4.352;2022-07-29T07:51:57;20.40;99.90
26230;DHT22;13960;50.860;4.352;2022-07-29T07:54:23;20.40;99.90
26230;DHT22;13960;50.860;4.352;2022-07-29T07:56:48;20.60;99.90
26230;DHT22;13960;50.860;4.352;2022-07-29T07:59:15;20.40;99.90
26230;DHT22;13960;50.860;4.352;2022-07-29T08:01:41;20.20;99.90
26230;DHT22;13960;50.860;4.352;2022-07-29T08:04:06;20.20;99.90
26230;DHT22;13960;50.860;4.352;2022-07-29T08:06:33;20.20;99.90
26230;DHT22;13960;50.860;4.352;2022-07-29T08:09:01;20.30;99.90
26230;DHT22;13960;50.860;4.352;2022-07-29T08:11:27;20.20;99.90
26230;DHT22;13960;50.860;4.352;2022-07-29T08:13:53;20.20;99.90
26230;DHT22;13960;50.860;4.352;2022-07-29T08:16:19;20.40;99.90
26230;DHT22;13960;50.860;4.352;2022-07-29T08:18:45;20.40;99.90
26230;DHT22;13960;50.860;4.352;2022-07-29T08:21:11;20.40;99.90
26230;DHT22;13960;50.860;4.352;2022-07-29T08:23:37;20.50;99.90
26230;DHT22;13960;50.860;4.352;2022-07-29T08:26:11;20.60;99.90
26230;DHT22;13960;50.860;4.352;2022-07-29T08:28:37;20.60;99.90
26230;DHT22;13960;50.860;4.352;2022-07-29T08:31:03;20.50;99.90
26230;DHT22;13960;50.860;4.352;2022-07-29T08:33:28;20.30;99.90
26230;DHT22;13960;50.860;4.352;2022-07-29T08:35:54;20.30;99.90
26230;DHT22;13960;50.860;4.352;2022-07-29T08:38:19;20.40;99.90
26230;DHT22;13960;50.860;4.352;2022-07-29T08:40:45;20.60;99.90
26230;DHT22;13960;50.860;4.352;2022-07-29T08:43:11;20.80;99.90
26230;DHT22;13960;50.860;4.352;2022-07-29T08:45:44;20.80;99.90
26230;DHT22;13960;50.860;4.352;2022-07-29T08:48:13;20.90;99.90
26230;DHT22;13960;50.860;4.352;2022-07-29T08:50:39;21.00;99.90
26230;DHT22;13960;50.860;4.352;2022-07-29T08:53:07;20.90;99.90
26230;DHT22;13960;50.860;4.352;2022-07-29T08:55:32;20.90;99.90
26230;DHT22;13960;50.860;4.352;2022-07-29T08:57:59;20.90;99.90
26230;DHT22;13960;50.860;4.352;2022-07-29T09:00:26;21.00;99.90
26230;DHT22;13960;50.860;4.352;2022-07-29T09:02:55;21.10;99.90
26230;DHT22;13960;50.860;4.352;2022-07-29T09:05:22;21.30;99.90
26230;DHT22;13960;50.860;4.352;2022-07-29T09:07:48;21.40;99.90
26230;DHT22;13960;50.860;4.352;2022-07-29T09:10:14;21.30;99.90
26230;DHT22;13960;50.860;4.352;2022-07-29T09:12:39;21.30;99.90
26230;DHT22;13960;50.860;4.352;2022-07-29T09:15:06;21.30;99.90
26230;DHT22;13960;50.860;4.352;2022-07-29T09:17:48;21.30;99.90
26230;DHT22;13960;50.860;4.352;2022-07-29T09:20:14;21.40;99.90
26230;DHT22;13960;50.860;4.352;2022-07-29T09:22:40;21.50;99.90
26230;DHT22;13960;50.860;4.352;2022-07-29T09:25:06;21.40;99.90
26230;DHT22;13960;50.860;4.352;2022-07-29T09:27:32;21.40;99.90
26230;DHT22;13960;50.860;4.352;2022-07-29T09:30:03;21.70;99.90
26230;DHT22;13960;50.860;4.352;2022-07-29T09:32:29;21.80;99.90
26230;DHT22;13960;50.860;4.352;2022-07-29T09:35:13;21.60;99.90
26230;DHT22;13960;50.860;4.352;2022-07-29T09:37:39;21.60;99.90
26230;DHT22;13960;50.860;4.352;2022-07-29T09:40:14;21.70;99.90
26230;DHT22;13960;50.860;4.352;2022-07-29T09:42:41;21.70;99.90
26230;DHT22;13960;50.860;4.352;2022-07-29T09:45:06;21.70;99.90
26230;DHT22;13960;50.860;4.352;2022-07-29T09:47:45;21.80;99.90
26230;DHT22;13960;50.860;4.352;2022-07-29T09:50:12;21.70;99.90
26230;DHT22;13960;50.860;4.352;2022-07-29T09:52:44;21.70;99.90
26230;DHT22;13960;50.860;4.352;2022-07-29T09:55:10;21.80;99.90
26230;DHT22;13960;50.860;4.352;2022-07-29T09:57:36;21.60;99.90
26230;DHT22;13960;50.860;4.352;2022-07-29T10:00:11;21.80;99.90
26230;DHT22;13960;50.860;4.352;2022-07-29T10:02:37;22.00;99.90
26230;DHT22;13960;50.860;4.352;2022-07-29T10:05:15;22.10;99.90
26230;DHT22;13960;50.860;4.352;2022-07-29T10:10:10;22.20;99.90
26230;DHT22;13960;50.860;4.352;2022-07-29T10:12:47;22.30;99.90
26230;DHT22;13960;50.860;4.352;2022-07-29T10:15:13;22.30;99.90
26230;DHT22;13960;50.860;4.352;2022-07-29T10:17:40;22.40;99.90
26230;DHT22;13960;50.860;4.352;2022-07-29T10:20:06;22.50;99.90
26230;DHT22;13960;50.860;4.352;2022-07-29T10:22:32;22.70;99.90
26230;DHT22;13960;50.860;4.352;2022-07-29T10:24:59;22.70;99.90
26230;DHT22;13960;50.860;4.352;2022-07-29T10:27:24;22.80;99.90
26230;DHT22;13960;50.860;4.352;2022-07-29T10:29:53;22.90;99.90
26230;DHT22;13960;50.860;4.352;2022-07-29T10:37:21;22.80;99.90
26230;DHT22;13960;50.860;4.352;2022-07-29T10:42:52;22.80;99.90
26230;DHT22;13960;50.860;4.352;2022-07-29T10:45:18;23.10;99.90
26230;DHT22;13960;50.860;4.352;2022-07-29T10:47:44;23.10;99.90
26230;DHT22;13960;50.860;4.352;2022-07-29T10:50:10;23.40;99.90
26230;DHT22;13960;50.860;4.352;2022-07-29T10:52:53;23.50;99.90
26230;DHT22;13960;50.860;4.352;2022-07-29T10:58:19;23.30;99.90
26230;DHT22;13960;50.860;4.352;2022-07-29T11:00:46;23.30;99.90
26230;DHT22;13960;50.860;4.352;2022-07-29T11:05:56;23.50;99.90
26230;DHT22;13960;50.860;4.352;2022-07-29T11:08:22;23.50;99.90
26230;DHT22;13960;50.860;4.352;2022-07-29T11:10:53;23.60;99.90
26230;DHT22;13960;50.860;4.352;2022-07-29T11:16:03;23.70;99.90
26230;DHT22;13960;50.860;4.352;2022-07-29T11:18:30;23.90;99.90
26230;DHT22;13960;50.860;4.352;2022-07-29T11:20:55;23.80;99.90
26230;DHT22;13960;50.860;4.352;2022-07-29T11:28:33;23.90;99.90
26230;DHT22;13960;50.860;4.352;2022-07-29T11:30:59;24.00;99.90
26230;DHT22;13960;50.860;4.352;2022-07-29T11:36:15;24.30;99.90
26230;DHT22;13960;50.860;4.352;2022-07-29T11:38:42;24.20;99.90
26230;DHT22;13960;50.860;4.352;2022-07-29T11:43:59;24.30;99.90
26230;DHT22;13960;50.860;4.352;2022-07-29T11:49:09;24.40;99.90
26230;DHT22;13960;50.860;4.352;2022-07-29T11:51:36;24.40;99.90
26230;DHT22;13960;50.860;4.352;2022-07-29T11:54:02;24.60;99.90
26230;DHT22;13960;50.860;4.352;2022-07-29T11:56:27;24.70;99.90
26230;DHT22;13960;50.860;4.352;2022-07-29T11:59:05;24.70;99.90
26230;DHT22;13960;50.860;4.352;2022-07-29T12:01:31;24.70;99.90
26230;DHT22;13960;50.860;4.352;2022-07-29T12:04:04;25.00;99.90
26230;DHT22;13960;50.860;4.352;2022-07-29T12:06:30;25.20;99.90
26230;DHT22;13960;50.860;4.352;2022-07-29T12:08:56;25.40;99.90
26230;DHT22;13960;50.860;4.352;2022-07-29T12:11:21;25.70;99.90
26230;DHT22;13960;50.860;4.352;2022-07-29T12:13:47;26.10;99.90
26230;DHT22;13960;50.860;4.352;2022-07-29T12:16:13;26.30;99.90
26230;DHT22;13960;50.860;4.352;2022-07-29T12:18:38;26.30;99.90
26230;DHT22;13960;50.860;4.352;2022-07-29T12:21:04;25.80;99.90
26230;DHT22;13960;50.860;4.352;2022-07-29T12:23:33;25.60;99.90
26230;DHT22;13960;50.860;4.352;2022-07-29T12:25:58;25.50;99.90
26230;DHT22;13960;50.860;4.352;2022-07-29T12:28:24;25.50;99.90
26230;DHT22;13960;50.860;4.352;2022-07-29T12:30:51;25.70;99.70
26230;DHT22;13960;50.860;4.352;2022-07-29T12:35:48;26.20;99.00
26230;DHT22;13960;50.860;4.352;2022-07-29T12:38:14;26.10;99.30
26230;DHT22;13960;50.860;4.352;2022-07-29T12:40:40;26.00;99.10
26230;DHT22;13960;50.860;4.352;2022-07-29T12:43:06;26.00;99.10
26230;DHT22;13960;50.860;4.352;2022-07-29T12:45:32;26.10;98.90
26230;DHT22;13960;50.860;4.352;2022-07-29T12:47:58;26.30;98.60
26230;DHT22;13960;50.860;4.352;2022-07-29T12:50:23;26.40;98.20
26230;DHT22;13960;50.860;4.352;2022-07-29T12:52:50;26.40;98.20
26230;DHT22;13960;50.860;4.352;2022-07-29T12:55:16;26.30;97.50
26230;DHT22;13960;50.860;4.352;2022-07-29T12:57:48;26.40;98.30
26230;DHT22;13960;50.860;4.352;2022-07-29T13:00:14;26.50;97.40
26230;DHT22;13960;50.860;4.352;2022-07-29T13:02:41;26.60;97.70
26230;DHT22;13960;50.860;4.352;2022-07-29T13:05:07;26.10;97.00
26230;DHT22;13960;50.860;4.352;2022-07-29T13:07:33;26.00;97.70
26230;DHT22;13960;50.860;4.352;2022-07-29T13:10:14;26.40;97.60
26230;DHT22;13960;50.860;4.352;2022-07-29T13:15:24;26.60;97.60
26230;DHT22;13960;50.860;4.352;2022-07-29T13:17:50;26.40;97.60
26230;DHT22;13960;50.860;4.352;2022-07-29T13:20:16;26.60;97.70
26230;DHT22;13960;50.860;4.352;2022-07-29T13:22:42;26.90;97.20
26230;DHT22;13960;50.860;4.352;2022-07-29T13:25:22;26.90;97.00
26230;DHT22;13960;50.860;4.352;2022-07-29T13:27:48;26.80;96.70
26230;DHT22;13960;50.860;4.352;2022-07-29T13:30:13;26.40;96.40
26230;DHT22;13960;50.860;4.352;2022-07-29T13:32:40;26.20;96.60
26230;DHT22;13960;50.860;4.352;2022-07-29T13:35:06;26.30;96.80
26230;DHT22;13960;50.860;4.352;2022-07-29T13:37:33;26.60;96.30
26230;DHT22;13960;50.860;4.352;2022-07-29T13:40:00;26.50;96.40
26230;DHT22;13960;50.860;4.352;2022-07-29T13:42:28;26.90;96.40
26230;DHT22;13960;50.860;4.352;2022-07-29T13:44:53;27.00;95.70
26230;DHT22;13960;50.860;4.352;2022-07-29T13:47:20;27.20;95.90
26230;DHT22;13960;50.860;4.352;2022-07-29T13:49:46;27.00;95.60
26230;DHT22;13960;50.860;4.352;2022-07-29T13:52:16;26.90;95.80
26230;DHT22;13960;50.860;4.352;2022-07-29T13:54:42;26.90;95.40
26230;DHT22;13960;50.860;4.352;2022-07-29T13:57:08;27.10;95.20
26230;DHT22;13960;50.860;4.352;2022-07-29T13:59:33;27.50;95.00
26230;DHT22;13960;50.860;4.352;2022-07-29T14:01:59;27.90;94.20
26230;DHT22;13960;50.860;4.352;2022-07-29T14:04:25;27.40;93.30
26230;DHT22;13960;50.860;4.352;2022-07-29T14:06:50;27.60;93.30
26230;DHT22;13960;50.860;4.352;2022-07-29T14:09:16;27.60;93.10
26230;DHT22;13960;50.860;4.352;2022-07-29T14:11:42;27.70;92.90
26230;DHT22;13960;50.860;4.352;2022-07-29T14:14:07;28.20;93.10
26230;DHT22;13960;50.860;4.352;2022-07-29T14:16:33;28.40;93.00
26230;DHT22;13960;50.860;4.352;2022-07-29T14:18:59;28.50;92.90
26230;DHT22;13960;50.860;4.352;2022-07-29T14:21:25;28.40;93.40
26230;DHT22;13960;50.860;4.352;2022-07-29T14:23:50;28.10;93.30
26230;DHT22;13960;50.860;4.352;2022-07-29T14:26:17;28.00;92.60
26230;DHT22;13960;50.860;4.352;2022-07-29T14:28:42;28.70;93.00
26230;DHT22;13960;50.860;4.352;2022-07-29T14:31:08;29.10;92.80
26230;DHT22;13960;50.860;4.352;2022-07-29T14:33:34;29.10;91.60
26230;DHT22;13960;50.860;4.352;2022-07-29T14:35:59;28.80;91.60
26230;DHT22;13960;50.860;4.352;2022-07-29T14:38:25;28.80;91.50
26230;DHT22;13960;50.860;4.352;2022-07-29T14:40:50;28.20;91.50
26230;DHT22;13960;50.860;4.352;2022-07-29T14:43:16;27.50;92.20
26230;DHT22;13960;50.860;4.352;2022-07-29T14:45:41;27.60;92.50
26230;DHT22;13960;50.860;4.352;2022-07-29T14:48:07;27.50;92.80
26230;DHT22;13960;50.860;4.352;2022-07-29T14:50:32;26.90;92.70
26230;DHT22;13960;50.860;4.352;2022-07-29T14:53:01;27.20;92.70
26230;DHT22;13960;50.860;4.352;2022-07-29T14:55:26;28.00;92.70
26230;DHT22;13960;50.860;4.352;2022-07-29T14:57:52;28.10;92.20
26230;DHT22;13960;50.860;4.352;2022-07-29T15:00:18;28.60;91.80
26230;DHT22;13960;50.860;4.352;2022-07-29T15:02:44;28.90;91.60
26230;DHT22;13960;50.860;4.352;2022-07-29T15:05:10;29.00;91.10
26230;DHT22;13960;50.860;4.352;2022-07-29T15:07:35;28.60;91.30
26230;DHT22;13960;50.860;4.352;2022-07-29T15:10:01;28.20;91.80
26230;DHT22;13960;50.860;4.352;2022-07-29T15:12:27;27.90;92.40
26230;DHT22;13960;50.860;4.352;2022-07-29T15:14:53;29.30;92.40
26230;DHT22;13960;50.860;4.352;2022-07-29T15:17:19;31.00;90.80
26230;DHT22;13960;50.860;4.352;2022-07-29T15:19:45;32.10;88.60
26230;DHT22;13960;50.860;4.352;2022-07-29T15:22:12;31.50;89.10
26230;DHT22;13960;50.860;4.352;2022-07-29T15:24:37;31.30;87.90
26230;DHT22;13960;50.860;4.352;2022-07-29T15:27:03;31.30;86.80
26230;DHT22;13960;50.860;4.352;2022-07-29T15:29:28;31.50;86.80
26230;DHT22;13960;50.860;4.352;2022-07-29T15:31:54;31.70;85.20
26230;DHT22;13960;50.860;4.352;2022-07-29T15:34:19;30.90;85.30
26230;DHT22;13960;50.860;4.352;2022-07-29T15:36:46;30.60;85.10
26230;DHT22;13960;50.860;4.352;2022-07-29T15:39:11;31.00;86.20
26230;DHT22;13960;50.860;4.352;2022-07-29T15:41:37;30.70;85.80
26230;DHT22;13960;50.860;4.352;2022-07-29T15:44:02;30.40;86.20
26230;DHT22;13960;50.860;4.352;2022-07-29T15:46:28;30.20;87.30
26230;DHT22;13960;50.860;4.352;2022-07-29T15:49:12;31.00;85.90
26230;DHT22;13960;50.860;4.352;2022-07-29T15:51:38;32.30;83.50
26230;DHT22;13960;50.860;4.352;2022-07-29T15:54:04;31.60;83.00
26230;DHT22;13960;50.860;4.352;2022-07-29T15:56:29;31.50;82.70
26230;DHT22;13960;50.860;4.352;2022-07-29T15:58:55;31.20;83.20
26230;DHT22;13960;50.860;4.352;2022-07-29T16:01:21;31.10;83.40
26230;DHT22;13960;50.860;4.352;2022-07-29T16:03:47;31.60;81.10
26230;DHT22;13960;50.860;4.352;2022-07-29T16:06:13;32.30;81.10
26230;DHT22;13960;50.860;4.352;2022-07-29T16:08:39;33.10;79.00
26230;DHT22;13960;50.860;4.352;2022-07-29T16:11:05;32.70;78.40
26230;DHT22;13960;50.860;4.352;2022-07-29T16:13:31;30.40;81.60
26230;DHT22;13960;50.860;4.352;2022-07-29T16:16:02;29.90;83.00
26230;DHT22;13960;50.860;4.352;2022-07-29T16:18:29;30.80;82.80
26230;DHT22;13960;50.860;4.352;2022-07-29T16:20:55;32.20;79.50